createdAt,value
2019-03-13T00:00:53.194Z,32.80
2019-03-13T00:03:32.408Z,35.95
2019-03-13T00:06:10.310Z,31.45
2019-03-13T00:08:48.280Z,35.00
2019-03-13T00:11:26.306Z,34.45
2019-03-13T00:14:03.753Z,33.05
2019-03-13T00:16:41.526Z,36.13
2019-03-13T00:19:30.719Z,36.65
2019-03-13T00:22:11.454Z,34.73
2019-03-13T00:24:49.138Z,29.25
2019-03-13T00:27:27.020Z,28.75
2019-03-13T00:30:06.054Z,33.20
2019-03-13T00:32:43.582Z,33.65
2019-03-13T00:35:21.404Z,34.38
2019-03-13T00:37:58.855Z,30.75
2019-03-13T00:40:37.031Z,25.88
2019-03-13T00:43:14.598Z,34.35
2019-03-13T00:45:51.920Z,33.02
2019-03-13T00:48:30.096Z,28.52
2019-03-13T00:51:08.262Z,33.33
2019-03-13T00:53:46.032Z,32.42
2019-03-13T00:56:24.307Z,30.48
2019-03-13T00:59:01.871Z,28.85
2019-03-13T01:01:58.384Z,31.30
2019-03-13T01:04:40.890Z,31.93
2019-03-13T01:07:18.491Z,29.00
2019-03-13T01:09:55.879Z,31.57
2019-03-13T01:12:33.995Z,29.37
2019-03-13T01:15:12.037Z,30.12
2019-03-13T01:17:49.891Z,31.20
2019-03-13T01:20:27.790Z,30.50
2019-03-13T01:23:05.908Z,31.70
2019-03-13T01:25:43.307Z,31.27
2019-03-13T01:28:21.834Z,31.73
2019-03-13T01:31:17.939Z,32.55
2019-03-13T01:34:08.258Z,31.82
2019-03-13T01:36:45.629Z,32.93
2019-03-13T01:39:23.328Z,32.30
2019-03-13T01:42:01.608Z,29.67
2019-03-13T01:44:40.733Z,32.23
2019-03-13T01:47:18.670Z,32.93
2019-03-13T01:49:56.182Z,31.90
2019-03-13T01:52:35.730Z,31.35
2019-03-13T01:55:13.392Z,33.73
2019-03-13T01:57:50.808Z,34.33
2019-03-13T02:00:28.486Z,32.53
2019-03-13T02:03:06.078Z,33.80
2019-03-13T02:05:43.774Z,33.10
2019-03-13T02:08:21.036Z,31.25
2019-03-13T02:10:58.658Z,31.45
2019-03-13T02:13:36.431Z,33.13
2019-03-13T02:16:13.847Z,31.82
2019-03-13T02:18:51.296Z,34.80
2019-03-13T02:21:28.752Z,33.65
2019-03-13T02:24:06.247Z,33.08
2019-03-13T02:26:43.711Z,32.28
2019-03-13T02:29:20.957Z,32.63
2019-03-13T02:31:58.353Z,33.28
2019-03-13T02:34:35.882Z,31.40
2019-03-13T02:37:16.576Z,30.05
2019-03-13T02:39:54.527Z,30.90
2019-03-13T02:42:32.043Z,32.60
2019-03-13T02:45:10.366Z,32.30
2019-03-13T02:47:47.859Z,29.60
2019-03-13T02:50:25.727Z,30.92
2019-03-13T02:53:02.953Z,30.92
2019-03-13T02:55:40.432Z,28.67
2019-03-13T02:58:19.034Z,31.52
2019-03-13T03:01:06.137Z,28.90
2019-03-13T03:03:47.926Z,28.38
2019-03-13T03:06:25.319Z,30.70
2019-03-13T03:09:03.491Z,29.67
2019-03-13T03:11:42.595Z,28.92
2019-03-13T03:14:20.390Z,25.02
2019-03-13T03:16:58.606Z,29.27
2019-03-13T03:19:47.197Z,27.75
2019-03-13T03:22:24.987Z,28.27
2019-03-13T03:25:02.795Z,30.10
2019-03-13T03:27:40.230Z,28.10
2019-03-13T03:30:20.872Z,29.55
2019-03-13T03:32:58.292Z,29.15
2019-03-13T03:35:36.193Z,29.00
2019-03-13T03:38:13.431Z,28.52
2019-03-13T03:40:51.225Z,26.82
2019-03-13T03:43:39.920Z,26.65
2019-03-13T03:46:07.590Z,28.35
2019-03-13T03:48:45.969Z,27.55
2019-03-13T03:51:23.576Z,26.30
2019-03-13T03:54:00.931Z,27.00
2019-03-13T03:56:38.655Z,26.37
2019-03-13T03:59:15.970Z,23.92
2019-03-13T04:01:53.485Z,25.00
2019-03-13T04:04:30.885Z,25.60
2019-03-13T04:07:08.561Z,26.70
2019-03-13T04:09:46.298Z,26.80
2019-03-13T04:12:23.648Z,26.85
2019-03-13T04:15:12.920Z,24.70
2019-03-13T04:17:50.390Z,26.42
2019-03-13T04:20:28.093Z,25.30
2019-03-13T04:23:06.397Z,25.72
2019-03-13T04:25:44.822Z,25.37
2019-03-13T04:28:22.231Z,23.70
2019-03-13T04:30:59.906Z,23.32
2019-03-13T04:33:37.224Z,24.47
2019-03-13T04:36:14.680Z,24.55
2019-03-13T04:38:52.459Z,24.72
2019-03-13T04:41:30.103Z,24.15
2019-03-13T04:44:07.794Z,25.50
2019-03-13T04:46:45.198Z,23.87
2019-03-13T04:49:23.188Z,23.38
2019-03-13T04:52:01.347Z,23.12
2019-03-13T04:54:39.962Z,22.25
2019-03-13T04:57:17.418Z,22.15
2019-03-13T04:59:54.746Z,22.77
2019-03-13T05:02:32.080Z,20.85
2019-03-13T05:05:10.872Z,18.52
2019-03-13T05:07:49.043Z,20.23
2019-03-13T05:10:27.410Z,21.27
2019-03-13T05:13:05.159Z,21.00
2019-03-13T05:15:42.744Z,19.45
2019-03-13T05:18:20.137Z,20.43
2019-03-13T05:20:57.505Z,20.10
2019-03-13T05:23:35.156Z,18.77
2019-03-13T05:26:13.051Z,19.65
2019-03-13T05:28:50.433Z,20.52
2019-03-13T05:31:29.225Z,17.17
2019-03-13T05:34:06.869Z,18.77
2019-03-13T05:36:44.314Z,19.57
2019-03-13T05:39:21.747Z,20.25
2019-03-13T05:41:59.955Z,20.35
2019-03-13T05:44:37.285Z,19.30
2019-03-13T05:47:14.616Z,20.05
2019-03-13T05:49:51.989Z,17.77
2019-03-13T05:52:29.708Z,16.93
2019-03-13T05:55:06.875Z,20.48
2019-03-13T05:57:44.605Z,19.40
2019-03-13T06:00:24.464Z,20.70
2019-03-13T06:03:01.940Z,19.30
2019-03-13T06:05:39.396Z,19.65
2019-03-13T06:08:22.705Z,19.67
2019-03-13T06:11:00.424Z,19.15
2019-03-13T06:13:38.312Z,19.50
2019-03-13T06:16:15.972Z,19.23
2019-03-13T06:18:53.950Z,18.92
2019-03-13T06:21:32.335Z,19.52
2019-03-13T06:24:10.958Z,20.32
2019-03-13T06:26:49.394Z,19.23
2019-03-13T06:29:26.771Z,18.17
2019-03-13T06:32:04.278Z,16.95
2019-03-13T06:34:41.632Z,18.87
2019-03-13T06:37:19.013Z,18.23
2019-03-13T06:39:56.843Z,18.70
2019-03-13T06:42:34.441Z,19.85
2019-03-13T06:45:12.782Z,17.27
2019-03-13T06:47:50.317Z,17.32
2019-03-13T06:50:27.673Z,17.80
2019-03-13T06:53:05.199Z,16.80
2019-03-13T06:55:43.150Z,18.20
2019-03-13T06:58:29.723Z,15.38
2019-03-13T07:01:21.697Z,17.67
2019-03-13T07:04:07.883Z,17.10
2019-03-13T07:07:06.658Z,16.35
2019-03-13T07:09:56.524Z,16.20
2019-03-13T07:12:48.901Z,15.08
2019-03-13T07:15:44.017Z,15.65
2019-03-13T07:18:26.203Z,14.23
2019-03-13T07:21:23.508Z,16.57
2019-03-13T07:24:25.767Z,18.07
2019-03-13T07:27:24.912Z,17.70
2019-03-13T07:30:12.681Z,18.57
2019-03-13T07:32:57.871Z,18.23
2019-03-13T07:35:43.003Z,18.90
2019-03-13T07:38:35.899Z,19.77
2019-03-13T07:41:28.175Z,21.27
2019-03-13T07:44:30.667Z,21.70
2019-03-13T07:47:24.264Z,25.00
2019-03-13T07:50:10.798Z,22.80
2019-03-13T07:53:07.094Z,23.77
2019-03-13T07:56:09.669Z,26.30
2019-03-13T07:58:56.784Z,22.32
2019-03-13T08:01:41.818Z,26.97
2019-03-13T08:04:36.896Z,26.27
2019-03-13T08:07:49.310Z,25.40
2019-03-13T08:10:42.381Z,23.83
2019-03-13T08:13:42.848Z,23.55
2019-03-13T08:16:41.940Z,23.50
2019-03-13T08:19:47.191Z,28.02
2019-03-13T08:22:50.591Z,26.55
2019-03-13T08:25:50.268Z,23.98
2019-03-13T08:28:44.628Z,24.15
2019-03-13T08:31:36.511Z,24.87
2019-03-13T08:34:36.136Z,27.98
2019-03-13T08:37:23.195Z,26.25
2019-03-13T08:40:28.321Z,24.27
2019-03-13T08:43:25.055Z,26.37
2019-03-13T08:46:21.947Z,27.20
2019-03-13T08:49:21.456Z,26.97
2019-03-13T08:52:13.033Z,25.88
2019-03-13T08:55:08.814Z,26.57
2019-03-13T08:58:01.433Z,26.52
2019-03-13T09:00:55.245Z,26.17
2019-03-13T09:03:43.338Z,25.23
2019-03-13T09:06:40.857Z,24.00
2019-03-13T09:09:36.387Z,24.77
2019-03-13T09:12:44.575Z,23.80
2019-03-13T09:15:33.113Z,24.15
2019-03-13T09:18:47.775Z,23.75
2019-03-13T09:21:34.777Z,22.62
2019-03-13T09:24:30.919Z,20.48
2019-03-13T09:27:26.373Z,22.40
2019-03-13T09:30:28.762Z,20.82
2019-03-13T09:33:15.346Z,21.55
2019-03-13T09:36:26.823Z,19.35
2019-03-13T09:42:18.702Z,17.55
2019-03-13T09:45:28.504Z,16.45
2019-03-13T09:48:28.194Z,17.35
2019-03-13T09:51:19.716Z,15.72
2019-03-13T09:54:10.534Z,16.90
2019-03-13T09:57:13.196Z,14.90
2019-03-13T10:00:08.388Z,14.55
2019-03-13T10:03:08.092Z,14.73
2019-03-13T10:06:04.552Z,13.30
2019-03-13T10:09:06.745Z,15.05
2019-03-13T10:12:16.800Z,12.95
2019-03-13T10:15:08.986Z,10.53
2019-03-13T10:18:01.614Z,9.75
2019-03-13T10:20:56.992Z,7.33
2019-03-13T10:23:52.536Z,8.53
2019-03-13T10:26:42.758Z,6.53
2019-03-13T10:29:43.458Z,6.85
2019-03-13T10:32:46.304Z,6.67
2019-03-13T10:35:41.337Z,6.53
2019-03-13T10:38:37.748Z,6.70
2019-03-13T10:41:42.421Z,6.90
2019-03-13T10:44:38.560Z,6.50
2019-03-13T10:47:33.957Z,7.17
2019-03-13T10:50:40.761Z,7.90
2019-03-13T10:53:40.391Z,7.47
2019-03-13T10:56:37.518Z,6.03
2019-03-13T10:59:32.613Z,5.15
2019-03-13T11:02:32.299Z,4.47
2019-03-13T11:05:34.910Z,5.30
2019-03-13T11:08:31.226Z,4.50
2019-03-13T11:11:20.789Z,4.00
2019-03-13T11:14:17.585Z,4.95
2019-03-13T11:17:04.879Z,3.95
2019-03-13T11:20:11.370Z,4.75
2019-03-13T11:23:26.109Z,4.58
2019-03-13T11:26:19.525Z,3.92
2019-03-13T11:29:16.168Z,4.22
2019-03-13T11:32:12.444Z,3.67
2019-03-13T11:35:07.950Z,3.98
2019-03-13T11:38:09.172Z,4.00
2019-03-13T11:41:03.932Z,3.70
2019-03-13T11:43:59.075Z,3.55
2019-03-13T11:46:52.150Z,4.45
2019-03-13T11:49:48.989Z,4.28
2019-03-13T11:52:57.589Z,4.53
2019-03-13T11:56:00.630Z,4.22
2019-03-13T11:58:53.764Z,3.80
2019-03-13T12:01:52.017Z,4.35
2019-03-13T12:04:40.618Z,4.30
2019-03-13T12:07:27.356Z,3.95
2019-03-13T12:10:26.602Z,3.95
2019-03-13T12:13:21.490Z,3.90
2019-03-13T12:16:07.688Z,4.28
2019-03-13T12:19:04.274Z,4.17
2019-03-13T12:22:06.631Z,3.83
2019-03-13T12:24:58.810Z,3.55
2019-03-13T12:27:48.955Z,3.35
2019-03-13T12:30:43.881Z,3.42
2019-03-13T12:33:41.593Z,3.25
2019-03-13T12:36:37.688Z,3.50
2019-03-13T12:39:44.128Z,2.70
2019-03-13T12:42:39.173Z,3.00
2019-03-13T12:45:31.355Z,3.05
2019-03-13T12:48:16.935Z,2.77
2019-03-13T12:51:26.272Z,3.05
2019-03-13T12:54:16.099Z,2.60
2019-03-13T12:57:11.786Z,2.92
2019-03-13T13:00:15.546Z,2.47
2019-03-13T13:03:15.891Z,2.52
2019-03-13T13:06:21.161Z,3.02
2019-03-13T13:09:16.071Z,3.12
2019-03-13T13:12:10.863Z,2.85
2019-03-13T13:15:09.763Z,2.67
2019-03-13T13:17:58.297Z,2.58
2019-03-13T13:20:36.095Z,2.58
2019-03-13T13:23:13.206Z,2.58
2019-03-13T13:25:51.383Z,2.37
2019-03-13T13:28:28.734Z,2.33
2019-03-13T13:31:06.424Z,2.00
2019-03-13T13:33:55.391Z,2.55
2019-03-13T13:36:33.047Z,2.25
2019-03-13T13:39:10.663Z,1.90
2019-03-13T13:41:50.057Z,2.65
2019-03-13T13:44:27.392Z,2.72
2019-03-13T13:47:05.142Z,2.20
2019-03-13T13:49:42.600Z,2.30
2019-03-13T13:52:19.904Z,2.72
2019-03-13T13:55:04.036Z,2.10
2019-03-13T13:57:45.749Z,2.60
2019-03-13T14:00:23.998Z,2.58
2019-03-13T14:03:01.874Z,2.20
2019-03-13T14:05:40.923Z,2.50
2019-03-13T14:08:18.518Z,2.50
2019-03-13T14:10:57.080Z,3.35
2019-03-13T14:13:34.462Z,3.20
2019-03-13T14:16:12.213Z,2.60
2019-03-13T14:19:04.756Z,2.52
2019-03-13T14:21:42.205Z,2.83
2019-03-13T14:24:19.471Z,2.30
2019-03-13T14:26:58.425Z,3.67
2019-03-13T14:29:35.802Z,3.08
2019-03-13T14:32:13.033Z,3.20
2019-03-13T14:34:50.425Z,3.62
2019-03-13T14:37:28.023Z,3.17
2019-03-13T14:40:05.945Z,3.47
2019-03-13T14:42:43.396Z,3.72
2019-03-13T14:45:20.899Z,3.25
2019-03-13T14:47:59.297Z,3.67
2019-03-13T14:50:37.974Z,3.65
2019-03-13T14:53:15.649Z,2.90
2019-03-13T14:56:04.045Z,2.83
2019-03-13T14:58:41.478Z,4.42
2019-03-13T15:01:30.626Z,3.40
2019-03-13T15:04:08.274Z,4.03
2019-03-13T15:06:45.975Z,3.65
2019-03-13T15:09:23.605Z,3.60
2019-03-13T15:12:01.126Z,3.40
2019-03-13T15:14:38.604Z,3.95
2019-03-13T15:17:16.000Z,3.55
2019-03-13T15:19:53.953Z,3.70
2019-03-13T15:22:31.602Z,4.17
2019-03-13T15:25:09.955Z,3.20
2019-03-13T15:27:47.660Z,4.12
2019-03-13T15:30:24.984Z,4.30
2019-03-13T15:33:03.636Z,4.00
2019-03-13T15:35:41.204Z,4.33
2019-03-13T15:38:18.468Z,4.33
2019-03-13T15:40:57.953Z,3.37
2019-03-13T15:43:35.126Z,4.42
2019-03-13T15:46:12.780Z,4.40
2019-03-13T15:48:50.265Z,3.52
2019-03-13T15:51:27.600Z,4.30
2019-03-13T15:54:04.964Z,4.17
2019-03-13T15:56:42.802Z,4.50
2019-03-13T15:59:19.973Z,4.47
2019-03-13T16:01:59.600Z,4.70
2019-03-13T16:04:37.428Z,4.87
2019-03-13T16:07:15.083Z,5.80
2019-03-13T16:09:52.479Z,5.62
2019-03-13T16:12:30.117Z,4.67
2019-03-13T16:15:09.096Z,5.72
2019-03-13T16:17:46.423Z,5.15
2019-03-13T16:20:25.483Z,4.70
2019-03-13T16:23:03.107Z,3.70
2019-03-13T16:25:40.498Z,5.28
2019-03-13T16:28:17.865Z,5.53
2019-03-13T16:30:55.933Z,6.42
2019-03-13T16:33:33.559Z,6.55
2019-03-13T16:36:10.934Z,6.20
2019-03-13T16:38:48.374Z,5.33
2019-03-13T16:41:25.865Z,4.75
2019-03-13T16:44:03.514Z,5.10
2019-03-13T16:46:40.855Z,4.97
2019-03-13T16:49:18.270Z,5.08
2019-03-13T16:51:55.661Z,4.67
2019-03-13T16:54:33.319Z,5.08
2019-03-13T16:57:11.606Z,5.12
2019-03-13T17:00:00.088Z,5.35
2019-03-13T17:02:27.862Z,4.87
2019-03-13T17:05:05.863Z,5.55
2019-03-13T17:07:43.488Z,5.25
2019-03-13T17:10:22.480Z,6.20
2019-03-13T17:12:59.674Z,5.35
2019-03-13T17:15:37.747Z,7.12
2019-03-13T17:18:16.187Z,7.28
2019-03-13T17:20:53.790Z,6.87
2019-03-13T17:23:31.074Z,6.65
2019-03-13T17:26:08.568Z,8.18
2019-03-13T17:28:45.960Z,7.83
2019-03-13T17:31:24.811Z,6.70
2019-03-13T17:34:02.082Z,8.23
2019-03-13T17:36:39.536Z,7.33
2019-03-13T17:39:17.090Z,7.62
2019-03-13T17:41:56.090Z,8.20
2019-03-13T17:44:33.482Z,8.10
2019-03-13T17:47:11.587Z,7.10
2019-03-13T17:49:48.972Z,6.65
2019-03-13T17:52:26.670Z,7.30
2019-03-13T17:55:04.764Z,6.70
2019-03-13T17:57:42.453Z,5.97
2019-03-13T18:00:22.325Z,6.75
2019-03-13T18:03:00.359Z,6.08
2019-03-13T18:05:37.810Z,5.85
2019-03-13T18:08:15.490Z,5.05
2019-03-13T18:10:53.075Z,5.40
2019-03-13T18:13:30.503Z,6.00
2019-03-13T18:16:08.980Z,5.30
2019-03-13T18:18:47.552Z,5.55
2019-03-13T18:21:25.129Z,6.50
2019-03-13T18:24:03.104Z,6.28
2019-03-13T18:26:41.569Z,6.15
2019-03-13T18:29:18.826Z,5.90
2019-03-13T18:32:08.221Z,6.03
2019-03-13T18:34:45.838Z,5.90
2019-03-13T18:37:23.743Z,6.03
2019-03-13T18:40:01.452Z,6.47
2019-03-13T18:42:38.991Z,6.25
2019-03-13T18:45:19.064Z,6.97
2019-03-13T18:47:56.622Z,5.80
2019-03-13T18:50:33.977Z,5.33
2019-03-13T18:53:11.510Z,6.17
2019-03-13T18:55:49.299Z,6.37
2019-03-13T18:58:27.301Z,5.97
2019-03-13T19:01:05.256Z,6.15
2019-03-13T19:03:54.440Z,6.53
2019-03-13T19:06:32.484Z,6.12
2019-03-13T19:09:10.624Z,7.00
2019-03-13T19:11:49.711Z,7.10
2019-03-13T19:14:27.320Z,6.03
2019-03-13T19:17:05.178Z,6.33
2019-03-13T19:19:42.448Z,7.08
2019-03-13T19:22:20.070Z,7.20
2019-03-13T19:24:57.305Z,7.50
2019-03-13T19:27:36.183Z,7.05
2019-03-13T19:30:20.612Z,8.00
2019-03-13T19:32:59.899Z,7.60
2019-03-13T19:35:38.252Z,7.75
2019-03-13T19:38:15.864Z,6.50
2019-03-13T19:40:53.329Z,6.40
2019-03-13T19:43:30.856Z,5.87
2019-03-13T19:46:08.205Z,6.17
2019-03-13T19:48:46.033Z,5.40
2019-03-13T19:51:24.332Z,5.25
2019-03-13T19:54:01.856Z,5.72
2019-03-13T19:56:39.400Z,6.28
2019-03-13T19:59:16.830Z,6.03
2019-03-13T20:01:54.453Z,7.22
2019-03-13T20:04:31.770Z,8.28
2019-03-13T20:07:09.505Z,6.45
2019-03-13T20:09:48.721Z,7.12
2019-03-13T20:12:27.768Z,7.65
2019-03-13T20:15:05.691Z,7.20
2019-03-13T20:17:43.510Z,6.92
2019-03-13T20:20:21.999Z,5.75
2019-03-13T20:23:04.041Z,6.30
2019-03-13T20:25:42.619Z,6.25
2019-03-13T20:28:20.790Z,5.80
2019-03-13T20:30:58.360Z,7.30
2019-03-13T20:33:35.675Z,6.45
2019-03-13T20:36:24.456Z,6.87
2019-03-13T20:39:02.027Z,7.12
2019-03-13T20:41:41.040Z,6.95
2019-03-13T20:44:18.687Z,7.15
2019-03-13T20:46:57.824Z,7.00
2019-03-13T20:49:35.988Z,6.40
2019-03-13T20:52:13.841Z,7.42
2019-03-13T20:54:51.613Z,7.40
2019-03-13T20:57:29.036Z,7.85
2019-03-13T21:00:07.721Z,7.15
2019-03-13T21:02:47.645Z,8.13
2019-03-13T21:05:24.974Z,8.45
2019-03-13T21:08:02.600Z,7.90
2019-03-13T21:10:40.369Z,8.90
2019-03-13T21:13:18.047Z,8.70
2019-03-13T21:15:56.005Z,8.83
2019-03-13T21:18:33.459Z,8.48
2019-03-13T21:21:11.534Z,9.35
2019-03-13T21:23:48.880Z,7.72
2019-03-13T21:26:27.218Z,8.28
2019-03-13T21:29:05.850Z,8.80
2019-03-13T21:31:43.554Z,8.58
2019-03-13T21:34:21.729Z,8.95
2019-03-13T21:36:59.321Z,7.97
2019-03-13T21:39:36.874Z,9.00
2019-03-13T21:42:15.642Z,9.00
2019-03-13T21:44:53.103Z,9.50
2019-03-13T21:47:30.403Z,8.98
2019-03-13T21:50:09.255Z,9.50
2019-03-13T21:52:46.643Z,9.00
2019-03-13T21:55:26.972Z,9.33
2019-03-13T21:58:03.560Z,9.00
2019-03-13T22:00:43.171Z,8.75
2019-03-13T22:03:28.714Z,9.65
2019-03-13T22:06:01.050Z,8.25
2019-03-13T22:08:38.582Z,8.20
2019-03-13T22:11:16.135Z,9.38
2019-03-13T22:13:56.052Z,8.55
2019-03-13T22:16:33.753Z,9.38
2019-03-13T22:19:11.872Z,8.83
2019-03-13T22:21:49.428Z,7.65
2019-03-13T22:24:27.146Z,7.67
2019-03-13T22:27:05.263Z,7.80
2019-03-13T22:29:44.281Z,7.55
2019-03-13T22:32:22.085Z,7.28
2019-03-13T22:35:00.071Z,7.65
2019-03-13T22:37:37.636Z,7.45
2019-03-13T22:40:15.436Z,8.18
2019-03-13T22:42:52.962Z,7.87
2019-03-13T22:45:33.005Z,7.42
2019-03-13T22:48:10.604Z,7.72
2019-03-13T22:51:02.361Z,8.13
2019-03-13T22:53:39.476Z,8.27
2019-03-13T22:56:16.764Z,7.30
2019-03-13T22:58:54.932Z,6.83
2019-03-13T23:01:32.485Z,7.15
2019-03-13T23:04:10.726Z,7.65
2019-03-13T23:06:48.147Z,8.20
2019-03-13T23:09:25.842Z,7.78
2019-03-13T23:12:03.263Z,7.22
2019-03-13T23:14:47.463Z,6.92
2019-03-13T23:17:24.769Z,7.03
2019-03-13T23:20:02.222Z,7.30
2019-03-13T23:22:40.060Z,6.50
2019-03-13T23:25:18.281Z,7.30
2019-03-13T23:27:55.762Z,6.35
2019-03-13T23:30:33.269Z,8.33
2019-03-13T23:33:11.035Z,6.97
2019-03-13T23:35:49.602Z,7.30
2019-03-13T23:38:28.230Z,6.85
2019-03-13T23:41:06.133Z,7.35
2019-03-13T23:43:43.893Z,7.28
2019-03-13T23:46:21.361Z,6.85
2019-03-13T23:48:58.967Z,6.90
2019-03-13T23:51:36.453Z,7.17
2019-03-13T23:54:26.591Z,7.25
2019-03-13T23:57:15.943Z,6.78
2019-03-13T23:59:53.869Z,7.47
